sensor_id;sensor_type;location;lat;lon;timestamp;P1;durP1;ratioP1;P2;durP2;ratioP2
8462;SDS011;4268;52.506;13.462;2022-10-16T00:01:22;8.70;;;8.10;;
8462;SDS011;4268;52.506;13.462;2022-10-16T00:03:49;9.70;;;9.13;;
8462;SDS011;4268;52.506;13.462;2022-10-16T00:06:16;9.43;;;8.87;;
8462;SDS011;4268;52.506;13.462;2022-10-16T00:08:44;7.80;;;7.40;;
8462;SDS011;4268;52.506;13.462;2022-10-16T00:11:11;7.80;;;7.30;;
8462;SDS011;4268;52.506;13.462;2022-10-16T00:13:39;8.10;;;7.60;;
8462;SDS011;4268;52.506;13.462;2022-10-16T00:16:06;8.13;;;7.63;;
8462;SDS011;4268;52.506;13.462;2022-10-16T00:18:33;7.87;;;7.47;;
8462;SDS011;4268;52.506;13.462;2022-10-16T00:21:06;6.87;;;6.47;;
8462;SDS011;4268;52.506;13.462;2022-10-16T00:23:37;6.57;;;6.23;;
8462;SDS011;4268;52.506;13.462;2022-10-16T00:26:04;9.13;;;8.63;;
8462;SDS011;4268;52.506;13.462;2022-10-16T00:28:32;7.97;;;7.57;;
8462;SDS011;4268;52.506;13.462;2022-10-16T00:30:58;8.33;;;7.83;;
8462;SDS011;4268;52.506;13.462;2022-10-16T00:33:24;8.77;;;8.27;;
8462;SDS011;4268;52.506;13.462;2022-10-16T00:35:49;7.60;;;7.10;;
8462;SDS011;4268;52.506;13.462;2022-10-16T00:38:15;7.83;;;7.33;;
8462;SDS011;4268;52.506;13.462;2022-10-16T00:40:41;9.17;;;8.57;;
8462;SDS011;4268;52.506;13.462;2022-10-16T00:43:13;7.20;;;6.80;;
8462;SDS011;4268;52.506;13.462;2022-10-16T00:45:57;6.73;;;6.33;;
8462;SDS011;4268;52.506;13.462;2022-10-16T00:48:23;6.57;;;6.27;;
8462;SDS011;4268;52.506;13.462;2022-10-16T00:50:48;7.80;;;7.40;;
8462;SDS011;4268;52.506;13.462;2022-10-16T00:53:14;6.80;;;6.40;;
8462;SDS011;4268;52.506;13.462;2022-10-16T00:55:40;6.40;;;6.10;;
8462;SDS011;4268;52.506;13.462;2022-10-16T00:58:05;6.50;;;6.20;;
8462;SDS011;4268;52.506;13.462;2022-10-16T01:00:31;6.33;;;6.03;;
8462;SDS011;4268;52.506;13.462;2022-10-16T01:02:59;6.73;;;6.33;;
8462;SDS011;4268;52.506;13.462;2022-10-16T01:05:29;6.73;;;6.33;;
8462;SDS011;4268;52.506;13.462;2022-10-16T01:08:08;7.03;;;6.67;;
8462;SDS011;4268;52.506;13.462;2022-10-16T01:10:45;6.97;;;6.57;;
8462;SDS011;4268;52.506;13.462;2022-10-16T01:13:23;6.67;;;6.37;;
8462;SDS011;4268;52.506;13.462;2022-10-16T01:18:51;6.67;;;6.37;;
8462;SDS011;4268;52.506;13.462;2022-10-16T01:21:22;7.47;;;7.07;;
8462;SDS011;4268;52.506;13.462;2022-10-16T01:29:18;6.93;;;6.53;;
8462;SDS011;4268;52.506;13.462;2022-10-16T01:31:49;7.00;;;6.60;;
8462;SDS011;4268;52.506;13.462;2022-10-16T01:34:33;6.83;;;6.43;;
8462;SDS011;4268;52.506;13.462;2022-10-16T01:37:08;7.20;;;6.80;;
8462;SDS011;4268;52.506;13.462;2022-10-16T01:39:39;7.07;;;6.67;;
8462;SDS011;4268;52.506;13.462;2022-10-16T01:42:33;7.37;;;6.97;;
8462;SDS011;4268;52.506;13.462;2022-10-16T01:45:01;6.90;;;6.60;;
8462;SDS011;4268;52.506;13.462;2022-10-16T01:47:31;8.83;;;8.33;;
8462;SDS011;4268;52.506;13.462;2022-10-16T01:49:57;6.70;;;6.33;;
8462;SDS011;4268;52.506;13.462;2022-10-16T01:52:25;6.43;;;6.13;;
8462;SDS011;4268;52.506;13.462;2022-10-16T01:54:54;6.07;;;5.77;;
8462;SDS011;4268;52.506;13.462;2022-10-16T01:57:21;6.70;;;6.30;;
8462;SDS011;4268;52.506;13.462;2022-10-16T01:59:51;6.10;;;5.80;;
8462;SDS011;4268;52.506;13.462;2022-10-16T02:02:19;5.73;;;5.43;;
8462;SDS011;4268;52.506;13.462;2022-10-16T02:04:49;5.80;;;5.50;;
8462;SDS011;4268;52.506;13.462;2022-10-16T02:07:20;5.87;;;5.53;;
8462;SDS011;4268;52.506;13.462;2022-10-16T02:09:45;5.80;;;5.50;;
8462;SDS011;4268;52.506;13.462;2022-10-16T02:12:13;5.63;;;5.33;;
8462;SDS011;4268;52.506;13.462;2022-10-16T02:14:43;5.47;;;5.07;;
8462;SDS011;4268;52.506;13.462;2022-10-16T02:17:15;5.33;;;5.07;;
8462;SDS011;4268;52.506;13.462;2022-10-16T02:19:42;4.87;;;4.57;;
8462;SDS011;4268;52.506;13.462;2022-10-16T02:22:14;4.40;;;4.20;;
8462;SDS011;4268;52.506;13.462;2022-10-16T02:24:47;4.70;;;4.50;;
8462;SDS011;4268;52.506;13.462;2022-10-16T02:30:25;4.83;;;4.53;;
8462;SDS011;4268;52.506;13.462;2022-10-16T02:32:57;5.10;;;4.80;;
8462;SDS011;4268;52.506;13.462;2022-10-16T02:35:24;5.10;;;4.70;;
8462;SDS011;4268;52.506;13.462;2022-10-16T02:37:52;4.80;;;4.50;;
8462;SDS011;4268;52.506;13.462;2022-10-16T02:40:18;4.87;;;4.57;;
8462;SDS011;4268;52.506;13.462;2022-10-16T02:42:44;4.70;;;4.40;;
8462;SDS011;4268;52.506;13.462;2022-10-16T02:45:14;4.77;;;4.47;;
8462;SDS011;4268;52.506;13.462;2022-10-16T02:47:39;4.70;;;4.50;;
8462;SDS011;4268;52.506;13.462;2022-10-16T02:50:05;4.80;;;4.50;;
8462;SDS011;4268;52.506;13.462;2022-10-16T02:52:31;5.33;;;4.93;;
8462;SDS011;4268;52.506;13.462;2022-10-16T02:54:56;4.70;;;4.40;;
8462;SDS011;4268;52.506;13.462;2022-10-16T02:57:22;4.50;;;4.30;;
8462;SDS011;4268;52.506;13.462;2022-10-16T02:59:47;5.13;;;4.63;;
8462;SDS011;4268;52.506;13.462;2022-10-16T03:02:13;4.47;;;4.27;;
8462;SDS011;4268;52.506;13.462;2022-10-16T03:04:38;4.90;;;4.70;;
8462;SDS011;4268;52.506;13.462;2022-10-16T03:07:03;5.77;;;5.47;;
8462;SDS011;4268;52.506;13.462;2022-10-16T03:09:29;4.97;;;4.77;;
8462;SDS011;4268;52.506;13.462;2022-10-16T03:11:55;5.33;;;5.13;;
8462;SDS011;4268;52.506;13.462;2022-10-16T03:14:20;5.83;;;5.53;;
8462;SDS011;4268;52.506;13.462;2022-10-16T03:16:46;5.63;;;5.40;;
8462;SDS011;4268;52.506;13.462;2022-10-16T03:19:11;5.90;;;5.60;;
8462;SDS011;4268;52.506;13.462;2022-10-16T03:21:37;5.47;;;5.17;;
8462;SDS011;4268;52.506;13.462;2022-10-16T03:24:02;5.33;;;5.07;;
8462;SDS011;4268;52.506;13.462;2022-10-16T03:26:28;5.87;;;5.47;;
8462;SDS011;4268;52.506;13.462;2022-10-16T03:28:53;5.90;;;5.60;;
8462;SDS011;4268;52.506;13.462;2022-10-16T03:31:19;5.90;;;5.60;;
8462;SDS011;4268;52.506;13.462;2022-10-16T03:33:44;5.97;;;5.67;;
8462;SDS011;4268;52.506;13.462;2022-10-16T03:36:10;5.70;;;5.40;;
8462;SDS011;4268;52.506;13.462;2022-10-16T03:38:35;5.80;;;5.50;;
8462;SDS011;4268;52.506;13.462;2022-10-16T03:41:01;5.77;;;5.47;;
8462;SDS011;4268;52.506;13.462;2022-10-16T03:43:26;5.73;;;5.43;;
8462;SDS011;4268;52.506;13.462;2022-10-16T03:45:52;6.20;;;5.90;;
8462;SDS011;4268;52.506;13.462;2022-10-16T03:48:18;5.90;;;5.60;;
8462;SDS011;4268;52.506;13.462;2022-10-16T03:50:44;6.00;;;5.70;;
8462;SDS011;4268;52.506;13.462;2022-10-16T03:53:09;5.70;;;5.40;;
8462;SDS011;4268;52.506;13.462;2022-10-16T03:55:35;5.47;;;5.23;;
8462;SDS011;4268;52.506;13.462;2022-10-16T03:58:01;5.60;;;5.30;;
8462;SDS011;4268;52.506;13.462;2022-10-16T04:00:26;6.00;;;5.70;;
8462;SDS011;4268;52.506;13.462;2022-10-16T04:02:52;6.03;;;5.73;;
8462;SDS011;4268;52.506;13.462;2022-10-16T04:05:17;5.70;;;5.40;;
8462;SDS011;4268;52.506;13.462;2022-10-16T04:07:43;5.60;;;5.30;;
8462;SDS011;4268;52.506;13.462;2022-10-16T04:10:09;5.70;;;5.40;;
8462;SDS011;4268;52.506;13.462;2022-10-16T04:12:35;5.57;;;5.27;;
8462;SDS011;4268;52.506;13.462;2022-10-16T04:15:00;5.63;;;5.30;;
8462;SDS011;4268;52.506;13.462;2022-10-16T04:17:26;5.43;;;5.13;;
8462;SDS011;4268;52.506;13.462;2022-10-16T04:19:51;5.67;;;5.37;;
8462;SDS011;4268;52.506;13.462;2022-10-16T04:22:17;6.70;;;6.30;;
8462;SDS011;4268;52.506;13.462;2022-10-16T04:24:42;5.90;;;5.50;;
8462;SDS011;4268;52.506;13.462;2022-10-16T04:27:07;5.33;;;5.07;;
8462;SDS011;4268;52.506;13.462;2022-10-16T04:29:33;5.80;;;5.50;;
8462;SDS011;4268;52.506;13.462;2022-10-16T04:31:58;5.43;;;5.20;;
8462;SDS011;4268;52.506;13.462;2022-10-16T04:34:24;5.43;;;5.13;;
8462;SDS011;4268;52.506;13.462;2022-10-16T04:36:49;5.40;;;5.10;;
8462;SDS011;4268;52.506;13.462;2022-10-16T04:39:15;5.30;;;5.00;;
8462;SDS011;4268;52.506;13.462;2022-10-16T04:41:41;5.73;;;5.43;;
8462;SDS011;4268;52.506;13.462;2022-10-16T04:44:06;6.27;;;5.97;;
8462;SDS011;4268;52.506;13.462;2022-10-16T04:46:33;6.27;;;5.87;;
8462;SDS011;4268;52.506;13.462;2022-10-16T04:48:58;5.80;;;5.50;;
8462;SDS011;4268;52.506;13.462;2022-10-16T04:51:24;5.77;;;5.47;;
8462;SDS011;4268;52.506;13.462;2022-10-16T04:53:50;6.20;;;5.90;;
8462;SDS011;4268;52.506;13.462;2022-10-16T04:56:16;5.90;;;5.60;;
8462;SDS011;4268;52.506;13.462;2022-10-16T04:58:42;5.70;;;5.40;;
8462;SDS011;4268;52.506;13.462;2022-10-16T05:01:07;5.27;;;4.90;;
8462;SDS011;4268;52.506;13.462;2022-10-16T05:03:33;5.10;;;4.80;;
8462;SDS011;4268;52.506;13.462;2022-10-16T05:05:58;5.37;;;5.07;;
8462;SDS011;4268;52.506;13.462;2022-10-16T05:08:24;5.37;;;5.03;;
8462;SDS011;4268;52.506;13.462;2022-10-16T05:10:49;6.97;;;6.57;;
8462;SDS011;4268;52.506;13.462;2022-10-16T05:13:15;8.00;;;7.40;;
8462;SDS011;4268;52.506;13.462;2022-10-16T05:15:40;7.33;;;6.93;;
8462;SDS011;4268;52.506;13.462;2022-10-16T05:18:06;7.67;;;7.27;;
8462;SDS011;4268;52.506;13.462;2022-10-16T05:20:31;6.83;;;6.43;;
8462;SDS011;4268;52.506;13.462;2022-10-16T05:22:57;6.23;;;5.90;;
8462;SDS011;4268;52.506;13.462;2022-10-16T05:25:23;5.70;;;5.40;;
8462;SDS011;4268;52.506;13.462;2022-10-16T05:27:49;6.13;;;5.77;;
8462;SDS011;4268;52.506;13.462;2022-10-16T05:30:15;5.83;;;5.53;;
8462;SDS011;4268;52.506;13.462;2022-10-16T05:32:41;7.00;;;6.60;;
8462;SDS011;4268;52.506;13.462;2022-10-16T05:35:06;7.23;;;6.70;;
8462;SDS011;4268;52.506;13.462;2022-10-16T05:37:32;6.70;;;6.40;;
8462;SDS011;4268;52.506;13.462;2022-10-16T05:39:58;6.47;;;5.93;;
8462;SDS011;4268;52.506;13.462;2022-10-16T05:42:23;5.97;;;5.67;;
8462;SDS011;4268;52.506;13.462;2022-10-16T05:44:49;6.90;;;6.43;;
8462;SDS011;4268;52.506;13.462;2022-10-16T05:47:14;6.97;;;6.57;;
8462;SDS011;4268;52.506;13.462;2022-10-16T05:49:40;7.27;;;6.87;;
8462;SDS011;4268;52.506;13.462;2022-10-16T05:52:05;7.60;;;7.10;;
8462;SDS011;4268;52.506;13.462;2022-10-16T05:54:30;6.80;;;6.50;;
8462;SDS011;4268;52.506;13.462;2022-10-16T05:56:56;7.70;;;7.30;;
8462;SDS011;4268;52.506;13.462;2022-10-16T05:59:22;8.17;;;7.77;;
8462;SDS011;4268;52.506;13.462;2022-10-16T06:01:47;7.80;;;7.37;;
8462;SDS011;4268;52.506;13.462;2022-10-16T06:04:13;7.77;;;7.37;;
8462;SDS011;4268;52.506;13.462;2022-10-16T06:06:38;7.73;;;7.33;;
8462;SDS011;4268;52.506;13.462;2022-10-16T06:09:04;7.53;;;7.13;;
8462;SDS011;4268;52.506;13.462;2022-10-16T06:11:30;7.10;;;6.70;;
8462;SDS011;4268;52.506;13.462;2022-10-16T06:13:57;7.27;;;6.87;;
8462;SDS011;4268;52.506;13.462;2022-10-16T06:16:27;7.47;;;7.07;;
8462;SDS011;4268;52.506;13.462;2022-10-16T06:18:53;8.33;;;7.73;;
8462;SDS011;4268;52.506;13.462;2022-10-16T06:21:22;8.17;;;7.77;;
8462;SDS011;4268;52.506;13.462;2022-10-16T06:23:52;8.00;;;7.60;;
8462;SDS011;4268;52.506;13.462;2022-10-16T06:26:20;7.83;;;7.43;;
8462;SDS011;4268;52.506;13.462;2022-10-16T06:28:46;7.40;;;6.80;;
8462;SDS011;4268;52.506;13.462;2022-10-16T06:31:12;7.20;;;6.80;;
8462;SDS011;4268;52.506;13.462;2022-10-16T06:33:39;7.30;;;6.80;;
8462;SDS011;4268;52.506;13.462;2022-10-16T06:36:11;6.80;;;6.30;;
8462;SDS011;4268;52.506;13.462;2022-10-16T06:38:39;6.57;;;6.17;;
8462;SDS011;4268;52.506;13.462;2022-10-16T06:41:05;6.60;;;6.20;;
8462;SDS011;4268;52.506;13.462;2022-10-16T06:43:31;9.57;;;9.07;;
8462;SDS011;4268;52.506;13.462;2022-10-16T06:45:58;5.93;;;5.63;;
8462;SDS011;4268;52.506;13.462;2022-10-16T06:48:25;6.87;;;6.57;;
8462;SDS011;4268;52.506;13.462;2022-10-16T06:51:04;7.40;;;7.00;;
8462;SDS011;4268;52.506;13.462;2022-10-16T06:53:35;7.43;;;7.03;;
8462;SDS011;4268;52.506;13.462;2022-10-16T06:56:07;6.57;;;6.27;;
8462;SDS011;4268;52.506;13.462;2022-10-16T06:58:37;6.50;;;6.10;;
8462;SDS011;4268;52.506;13.462;2022-10-16T07:01:03;5.87;;;5.57;;
8462;SDS011;4268;52.506;13.462;2022-10-16T07:03:29;5.57;;;5.27;;
8462;SDS011;4268;52.506;13.462;2022-10-16T07:05:54;5.77;;;5.30;;
8462;SDS011;4268;52.506;13.462;2022-10-16T07:08:21;5.30;;;5.00;;
8462;SDS011;4268;52.506;13.462;2022-10-16T07:10:46;5.30;;;4.90;;
8462;SDS011;4268;52.506;13.462;2022-10-16T07:13:12;5.07;;;4.77;;
8462;SDS011;4268;52.506;13.462;2022-10-16T07:15:40;4.80;;;4.57;;
8462;SDS011;4268;52.506;13.462;2022-10-16T07:18:06;5.03;;;4.67;;
8462;SDS011;4268;52.506;13.462;2022-10-16T07:20:32;4.80;;;4.50;;
8462;SDS011;4268;52.506;13.462;2022-10-16T07:22:58;5.40;;;5.10;;
8462;SDS011;4268;52.506;13.462;2022-10-16T07:25:23;5.73;;;5.43;;
8462;SDS011;4268;52.506;13.462;2022-10-16T07:27:49;6.73;;;6.33;;
8462;SDS011;4268;52.506;13.462;2022-10-16T07:30:14;5.40;;;5.10;;
8462;SDS011;4268;52.506;13.462;2022-10-16T07:32:40;6.10;;;5.70;;
8462;SDS011;4268;52.506;13.462;2022-10-16T07:35:05;5.53;;;5.23;;
8462;SDS011;4268;52.506;13.462;2022-10-16T07:37:31;5.03;;;4.73;;
8462;SDS011;4268;52.506;13.462;2022-10-16T07:39:57;4.77;;;4.57;;
8462;SDS011;4268;52.506;13.462;2022-10-16T07:42:22;4.67;;;4.43;;
8462;SDS011;4268;52.506;13.462;2022-10-16T07:44:48;4.23;;;4.03;;
8462;SDS011;4268;52.506;13.462;2022-10-16T07:47:13;4.17;;;3.93;;
8462;SDS011;4268;52.506;13.462;2022-10-16T07:49:39;4.47;;;4.27;;
8462;SDS011;4268;52.506;13.462;2022-10-16T07:52:04;4.83;;;4.53;;
8462;SDS011;4268;52.506;13.462;2022-10-16T07:54:30;4.50;;;4.20;;
8462;SDS011;4268;52.506;13.462;2022-10-16T07:56:55;4.10;;;3.90;;
8462;SDS011;4268;52.506;13.462;2022-10-16T07:59:20;3.80;;;3.60;;
8462;SDS011;4268;52.506;13.462;2022-10-16T08:01:46;4.07;;;3.80;;
8462;SDS011;4268;52.506;13.462;2022-10-16T08:04:13;4.07;;;3.80;;
8462;SDS011;4268;52.506;13.462;2022-10-16T08:06:39;3.90;;;3.60;;
8462;SDS011;4268;52.506;13.462;2022-10-16T08:09:05;3.50;;;3.30;;
8462;SDS011;4268;52.506;13.462;2022-10-16T08:11:32;3.80;;;3.50;;
8462;SDS011;4268;52.506;13.462;2022-10-16T08:13:57;3.23;;;3.03;;
8462;SDS011;4268;52.506;13.462;2022-10-16T08:16:23;2.87;;;2.77;;
8462;SDS011;4268;52.506;13.462;2022-10-16T08:18:48;2.60;;;2.50;;
8462;SDS011;4268;52.506;13.462;2022-10-16T08:21:17;2.80;;;2.70;;
8462;SDS011;4268;52.506;13.462;2022-10-16T08:23:44;2.73;;;2.53;;
8462;SDS011;4268;52.506;13.462;2022-10-16T08:26:10;2.50;;;2.40;;
8462;SDS011;4268;52.506;13.462;2022-10-16T08:28:36;2.73;;;2.63;;
8462;SDS011;4268;52.506;13.462;2022-10-16T08:31:12;2.87;;;2.67;;
8462;SDS011;4268;52.506;13.462;2022-10-16T08:33:40;2.67;;;2.53;;
8462;SDS011;4268;52.506;13.462;2022-10-16T08:36:06;2.87;;;2.67;;
8462;SDS011;4268;52.506;13.462;2022-10-16T08:38:32;2.57;;;2.47;;
8462;SDS011;4268;52.506;13.462;2022-10-16T08:41:07;2.50;;;2.40;;
8462;SDS011;4268;52.506;13.462;2022-10-16T08:43:48;2.80;;;2.70;;
8462;SDS011;4268;52.506;13.462;2022-10-16T08:46:39;2.40;;;2.20;;
8462;SDS011;4268;52.506;13.462;2022-10-16T08:49:08;2.50;;;2.40;;
8462;SDS011;4268;52.506;13.462;2022-10-16T08:51:37;2.30;;;2.20;;
8462;SDS011;4268;52.506;13.462;2022-10-16T08:54:04;3.70;;;2.40;;
8462;SDS011;4268;52.506;13.462;2022-10-16T08:56:31;3.17;;;2.30;;
8462;SDS011;4268;52.506;13.462;2022-10-16T08:58:58;2.50;;;2.40;;
8462;SDS011;4268;52.506;13.462;2022-10-16T09:01:25;2.60;;;2.50;;
8462;SDS011;4268;52.506;13.462;2022-10-16T09:04:25;2.60;;;2.50;;
8462;SDS011;4268;52.506;13.462;2022-10-16T09:07:16;2.40;;;2.30;;
8462;SDS011;4268;52.506;13.462;2022-10-16T09:10:11;2.43;;;2.33;;
8462;SDS011;4268;52.506;13.462;2022-10-16T09:13:03;2.17;;;2.07;;
8462;SDS011;4268;52.506;13.462;2022-10-16T09:15:51;2.10;;;2.10;;
8462;SDS011;4268;52.506;13.462;2022-10-16T09:21:24;2.30;;;2.20;;
8462;SDS011;4268;52.506;13.462;2022-10-16T09:23:53;2.50;;;2.40;;
8462;SDS011;4268;52.506;13.462;2022-10-16T09:26:22;2.60;;;2.40;;
8462;SDS011;4268;52.506;13.462;2022-10-16T09:28:47;2.70;;;2.50;;
8462;SDS011;4268;52.506;13.462;2022-10-16T09:31:17;2.70;;;2.60;;
8462;SDS011;4268;52.506;13.462;2022-10-16T09:33:46;3.37;;;2.50;;
8462;SDS011;4268;52.506;13.462;2022-10-16T09:36:15;2.87;;;2.77;;
8462;SDS011;4268;52.506;13.462;2022-10-16T09:38:42;2.60;;;2.50;;
8462;SDS011;4268;52.506;13.462;2022-10-16T09:41:21;2.80;;;2.60;;
8462;SDS011;4268;52.506;13.462;2022-10-16T09:43:57;2.90;;;2.70;;
8462;SDS011;4268;52.506;13.462;2022-10-16T09:46:26;2.67;;;2.57;;
8462;SDS011;4268;52.506;13.462;2022-10-16T09:48:56;3.60;;;2.60;;
8462;SDS011;4268;52.506;13.462;2022-10-16T09:51:27;2.53;;;2.40;;
8462;SDS011;4268;52.506;13.462;2022-10-16T09:53:59;2.70;;;2.50;;
8462;SDS011;4268;52.506;13.462;2022-10-16T09:56:27;2.73;;;2.63;;
8462;SDS011;4268;52.506;13.462;2022-10-16T09:58:59;3.30;;;3.10;;
8462;SDS011;4268;52.506;13.462;2022-10-16T10:01:35;3.20;;;3.10;;
8462;SDS011;4268;52.506;13.462;2022-10-16T10:04:03;3.20;;;3.00;;
8462;SDS011;4268;52.506;13.462;2022-10-16T10:06:30;3.20;;;3.00;;
8462;SDS011;4268;52.506;13.462;2022-10-16T10:08:59;2.83;;;2.70;;
8462;SDS011;4268;52.506;13.462;2022-10-16T10:14:22;3.77;;;2.43;;
8462;SDS011;4268;52.506;13.462;2022-10-16T10:17:07;2.37;;;2.27;;
8462;SDS011;4268;52.506;13.462;2022-10-16T10:19:49;2.60;;;2.50;;
8462;SDS011;4268;52.506;13.462;2022-10-16T10:22:23;2.60;;;2.50;;
8462;SDS011;4268;52.506;13.462;2022-10-16T10:30:56;2.60;;;2.50;;
8462;SDS011;4268;52.506;13.462;2022-10-16T10:33:41;2.60;;;2.50;;
8462;SDS011;4268;52.506;13.462;2022-10-16T10:38:51;2.73;;;2.63;;
8462;SDS011;4268;52.506;13.462;2022-10-16T10:41:44;2.50;;;2.30;;
8462;SDS011;4268;52.506;13.462;2022-10-16T10:47:14;2.53;;;2.30;;
8462;SDS011;4268;52.506;13.462;2022-10-16T10:52:45;1.80;;;1.73;;
8462;SDS011;4268;52.506;13.462;2022-10-16T10:55:19;1.97;;;1.70;;
8462;SDS011;4268;52.506;13.462;2022-10-16T11:00:30;2.33;;;2.23;;
8462;SDS011;4268;52.506;13.462;2022-10-16T11:03:27;2.00;;;1.90;;
8462;SDS011;4268;52.506;13.462;2022-10-16T11:06:06;2.90;;;2.37;;
8462;SDS011;4268;52.506;13.462;2022-10-16T11:11:28;2.10;;;2.00;;
8462;SDS011;4268;52.506;13.462;2022-10-16T11:14:14;1.70;;;1.70;;
8462;SDS011;4268;52.506;13.462;2022-10-16T11:16:48;1.80;;;1.70;;
8462;SDS011;4268;52.506;13.462;2022-10-16T11:19:39;1.90;;;1.80;;
8462;SDS011;4268;52.506;13.462;2022-10-16T11:25:14;3.00;;;2.00;;
8462;SDS011;4268;52.506;13.462;2022-10-16T11:30:41;2.03;;;1.93;;
8462;SDS011;4268;52.506;13.462;2022-10-16T11:41:24;2.30;;;1.80;;
8462;SDS011;4268;52.506;13.462;2022-10-16T11:44:06;1.80;;;1.70;;
8462;SDS011;4268;52.506;13.462;2022-10-16T11:49:46;1.60;;;1.60;;
8462;SDS011;4268;52.506;13.462;2022-10-16T11:52:16;1.70;;;1.70;;
8462;SDS011;4268;52.506;13.462;2022-10-16T11:55:03;1.60;;;1.50;;
8462;SDS011;4268;52.506;13.462;2022-10-16T11:57:39;1.83;;;1.73;;
8462;SDS011;4268;52.506;13.462;2022-10-16T12:08:10;1.67;;;1.57;;
8462;SDS011;4268;52.506;13.462;2022-10-16T12:10:39;1.70;;;1.60;;
8462;SDS011;4268;52.506;13.462;2022-10-16T12:18:43;1.77;;;1.67;;
8462;SDS011;4268;52.506;13.462;2022-10-16T12:21:09;1.87;;;1.80;;
8462;SDS011;4268;52.506;13.462;2022-10-16T12:23:54;1.90;;;1.80;;
8462;SDS011;4268;52.506;13.462;2022-10-16T12:26:34;2.00;;;1.90;;
8462;SDS011;4268;52.506;13.462;2022-10-16T12:31:59;2.20;;;1.90;;
8462;SDS011;4268;52.506;13.462;2022-10-16T12:34:27;1.90;;;1.80;;
8462;SDS011;4268;52.506;13.462;2022-10-16T12:36:56;2.00;;;1.90;;
8462;SDS011;4268;52.506;13.462;2022-10-16T12:39:37;1.60;;;1.60;;
8462;SDS011;4268;52.506;13.462;2022-10-16T12:42:04;2.50;;;2.40;;
8462;SDS011;4268;52.506;13.462;2022-10-16T12:44:44;2.47;;;2.03;;
8462;SDS011;4268;52.506;13.462;2022-10-16T12:47:19;2.13;;;1.93;;
8462;SDS011;4268;52.506;13.462;2022-10-16T12:49:53;1.97;;;1.87;;
8462;SDS011;4268;52.506;13.462;2022-10-16T12:52:26;1.90;;;1.90;;
8462;SDS011;4268;52.506;13.462;2022-10-16T12:54:55;2.13;;;2.03;;
8462;SDS011;4268;52.506;13.462;2022-10-16T13:00:13;2.83;;;2.63;;
8462;SDS011;4268;52.506;13.462;2022-10-16T13:11:35;2.13;;;1.90;;
8462;SDS011;4268;52.506;13.462;2022-10-16T13:17:09;2.00;;;1.90;;
8462;SDS011;4268;52.506;13.462;2022-10-16T13:22:33;2.47;;;2.33;;
8462;SDS011;4268;52.506;13.462;2022-10-16T13:28:12;2.20;;;2.10;;
8462;SDS011;4268;52.506;13.462;2022-10-16T13:35:52;2.23;;;2.13;;
8462;SDS011;4268;52.506;13.462;2022-10-16T13:38:24;1.90;;;1.90;;
8462;SDS011;4268;52.506;13.462;2022-10-16T13:40:56;2.63;;;2.43;;
8462;SDS011;4268;52.506;13.462;2022-10-16T13:46:13;2.07;;;1.83;;
8462;SDS011;4268;52.506;13.462;2022-10-16T13:48:56;2.33;;;2.13;;
8462;SDS011;4268;52.506;13.462;2022-10-16T13:51:23;2.93;;;2.80;;
8462;SDS011;4268;52.506;13.462;2022-10-16T13:53:49;1.93;;;1.93;;
8462;SDS011;4268;52.506;13.462;2022-10-16T13:56:16;3.00;;;2.00;;
8462;SDS011;4268;52.506;13.462;2022-10-16T13:58:44;2.20;;;2.10;;
8462;SDS011;4268;52.506;13.462;2022-10-16T14:01:19;1.80;;;1.80;;
8462;SDS011;4268;52.506;13.462;2022-10-16T14:03:50;2.50;;;2.30;;
8462;SDS011;4268;52.506;13.462;2022-10-16T14:06:20;2.33;;;2.23;;
8462;SDS011;4268;52.506;13.462;2022-10-16T14:08:53;2.37;;;2.17;;
8462;SDS011;4268;52.506;13.462;2022-10-16T14:11:25;2.33;;;2.23;;
8462;SDS011;4268;52.506;13.462;2022-10-16T14:13:51;1.97;;;1.97;;
8462;SDS011;4268;52.506;13.462;2022-10-16T14:16:19;2.33;;;2.23;;
8462;SDS011;4268;52.506;13.462;2022-10-16T14:18:50;2.40;;;2.30;;
8462;SDS011;4268;52.506;13.462;2022-10-16T14:21:31;2.40;;;2.30;;
8462;SDS011;4268;52.506;13.462;2022-10-16T14:23:58;2.20;;;2.10;;
8462;SDS011;4268;52.506;13.462;2022-10-16T14:26:26;2.47;;;2.30;;
8462;SDS011;4268;52.506;13.462;2022-10-16T14:31:38;2.30;;;2.10;;
8462;SDS011;4268;52.506;13.462;2022-10-16T14:34:22;2.27;;;2.17;;
8462;SDS011;4268;52.506;13.462;2022-10-16T14:36:55;2.33;;;2.10;;
8462;SDS011;4268;52.506;13.462;2022-10-16T14:39:23;2.40;;;2.30;;
8462;SDS011;4268;52.506;13.462;2022-10-16T14:41:54;2.20;;;2.10;;
8462;SDS011;4268;52.506;13.462;2022-10-16T14:44:22;2.30;;;2.20;;
8462;SDS011;4268;52.506;13.462;2022-10-16T14:46:54;2.50;;;2.30;;
8462;SDS011;4268;52.506;13.462;2022-10-16T14:49:20;2.10;;;2.00;;
8462;SDS011;4268;52.506;13.462;2022-10-16T14:51:48;2.60;;;2.40;;
8462;SDS011;4268;52.506;13.462;2022-10-16T14:54:14;2.03;;;1.93;;
8462;SDS011;4268;52.506;13.462;2022-10-16T14:56:46;2.40;;;2.20;;
8462;SDS011;4268;52.506;13.462;2022-10-16T14:59:30;2.73;;;2.50;;
8462;SDS011;4268;52.506;13.462;2022-10-16T15:02:18;2.43;;;2.33;;
8462;SDS011;4268;52.506;13.462;2022-10-16T15:04:53;2.93;;;2.83;;
8462;SDS011;4268;52.506;13.462;2022-10-16T15:07:18;2.90;;;2.60;;
8462;SDS011;4268;52.506;13.462;2022-10-16T15:09:44;3.30;;;3.10;;
8462;SDS011;4268;52.506;13.462;2022-10-16T15:12:09;3.30;;;3.00;;
8462;SDS011;4268;52.506;13.462;2022-10-16T15:14:35;3.10;;;2.90;;
8462;SDS011;4268;52.506;13.462;2022-10-16T15:17:01;2.70;;;2.60;;
8462;SDS011;4268;52.506;13.462;2022-10-16T15:19:27;2.77;;;2.60;;
8462;SDS011;4268;52.506;13.462;2022-10-16T15:21:53;4.17;;;2.50;;
8462;SDS011;4268;52.506;13.462;2022-10-16T15:24:18;2.57;;;2.47;;
8462;SDS011;4268;52.506;13.462;2022-10-16T15:26:44;2.53;;;2.43;;
8462;SDS011;4268;52.506;13.462;2022-10-16T15:29:11;3.20;;;2.90;;
8462;SDS011;4268;52.506;13.462;2022-10-16T15:31:37;2.93;;;2.73;;
8462;SDS011;4268;52.506;13.462;2022-10-16T15:34:03;2.90;;;2.70;;
8462;SDS011;4268;52.506;13.462;2022-10-16T15:36:31;2.93;;;2.73;;
8462;SDS011;4268;52.506;13.462;2022-10-16T15:39:05;3.93;;;2.67;;
8462;SDS011;4268;52.506;13.462;2022-10-16T15:41:42;2.77;;;2.60;;
8462;SDS011;4268;52.506;13.462;2022-10-16T15:44:09;2.37;;;2.27;;
8462;SDS011;4268;52.506;13.462;2022-10-16T15:46:35;2.53;;;2.43;;
8462;SDS011;4268;52.506;13.462;2022-10-16T15:49:02;2.70;;;2.60;;
8462;SDS011;4268;52.506;13.462;2022-10-16T15:51:28;3.23;;;3.03;;
8462;SDS011;4268;52.506;13.462;2022-10-16T15:53:55;3.20;;;3.00;;
8462;SDS011;4268;52.506;13.462;2022-10-16T15:56:22;3.03;;;2.83;;
8462;SDS011;4268;52.506;13.462;2022-10-16T15:58:49;3.57;;;3.27;;
8462;SDS011;4268;52.506;13.462;2022-10-16T16:01:14;3.10;;;2.90;;
8462;SDS011;4268;52.506;13.462;2022-10-16T16:03:41;2.80;;;2.70;;
8462;SDS011;4268;52.506;13.462;2022-10-16T16:08:42;2.90;;;2.70;;
8462;SDS011;4268;52.506;13.462;2022-10-16T16:11:09;3.13;;;2.93;;
8462;SDS011;4268;52.506;13.462;2022-10-16T16:13:36;3.00;;;2.80;;
8462;SDS011;4268;52.506;13.462;2022-10-16T16:16:10;3.20;;;3.00;;
8462;SDS011;4268;52.506;13.462;2022-10-16T16:18:40;3.00;;;2.63;;
8462;SDS011;4268;52.506;13.462;2022-10-16T16:21:09;3.13;;;2.83;;
8462;SDS011;4268;52.506;13.462;2022-10-16T16:23:36;3.00;;;2.80;;
8462;SDS011;4268;52.506;13.462;2022-10-16T16:28:48;4.37;;;3.97;;
8462;SDS011;4268;52.506;13.462;2022-10-16T16:31:14;3.67;;;3.37;;
8462;SDS011;4268;52.506;13.462;2022-10-16T16:33:40;3.60;;;3.30;;
8462;SDS011;4268;52.506;13.462;2022-10-16T16:36:05;4.20;;;3.90;;
8462;SDS011;4268;52.506;13.462;2022-10-16T16:38:34;3.93;;;3.63;;
8462;SDS011;4268;52.506;13.462;2022-10-16T16:41:10;4.10;;;3.80;;
8462;SDS011;4268;52.506;13.462;2022-10-16T16:43:37;4.43;;;3.50;;
8462;SDS011;4268;52.506;13.462;2022-10-16T16:46:02;3.80;;;3.50;;
8462;SDS011;4268;52.506;13.462;2022-10-16T16:48:28;3.80;;;3.50;;
8462;SDS011;4268;52.506;13.462;2022-10-16T16:50:54;3.80;;;3.50;;
8462;SDS011;4268;52.506;13.462;2022-10-16T16:53:20;4.47;;;3.40;;
8462;SDS011;4268;52.506;13.462;2022-10-16T16:55:46;3.20;;;3.00;;
8462;SDS011;4268;52.506;13.462;2022-10-16T16:58:12;3.70;;;3.40;;
8462;SDS011;4268;52.506;13.462;2022-10-16T17:00:46;3.57;;;3.27;;